Time;durP1;ratioP1;P1;durP2;ratioP2;P2;SDS_P1;SDS_P2;PMS_P1;PMS_P2;Temp;Humidity;BMP_temperature;BMP_pressure;BME280_temperature;BME280_humidity;BME280_pressure;Samples;Min_cycle;Max_cycle;Signal;HPM_P1;HPM_P2
2021/03/10 00:00:25;;;;;;;3.95;1.58;;;-4.90;99.90;;;;;;5008666;28;20281;-85
2021/03/10 00:02:51;;;;;;;2.58;1.70;;;-4.90;99.90;;;;;;5023043;28;20195;-84
2021/03/10 00:05:16;;;;;;;1.50;1.40;;;-5.00;99.90;;;;;;5023809;28;20225;-85
2021/03/10 00:07:42;;;;;;;3.45;1.63;;;-5.00;99.90;;;;;;5008473;28;20241;-85
2021/03/10 00:10:10;;;;;;;3.97;2.10;;;-5.10;99.90;;;;;;5024599;28;20209;-85
2021/03/10 00:12:36;;;;;;;3.70;1.80;;;-5.20;99.90;;;;;;5005945;28;20202;-86
2021/03/10 00:15:06;;;;;;;2.40;1.70;;;-5.20;99.90;;;;;;5025812;28;20186;-86
2021/03/10 00:17:32;;;;;;;2.40;1.60;;;-5.30;99.90;;;;;;5010159;28;20203;-85
2021/03/10 00:19:58;;;;;;;2.60;1.77;;;-5.40;99.90;;;;;;5010311;28;20197;-85
2021/03/10 00:22:24;;;;;;;4.63;1.70;;;-5.50;99.90;;;;;;5030464;28;20201;-85
2021/03/10 00:24:50;;;;;;;3.03;2.00;;;-5.60;99.90;;;;;;5026293;28;20206;-85
2021/03/10 00:27:24;;;;;;;2.55;1.60;;;-5.70;99.90;;;;;;5026356;28;20202;-85
2021/03/10 00:29:56;;;;;;;2.58;1.80;;;-5.80;99.90;;;;;;5003617;28;20225;-83
2021/03/10 00:32:23;;;;;;;2.90;1.97;;;-5.90;99.90;;;;;;5012716;28;20614;-85
2021/03/10 00:34:48;;;;;;;2.67;1.70;;;-6.00;99.90;;;;;;5023790;28;20217;-85
2021/03/10 00:37:16;;;;;;;2.47;1.65;;;-6.10;99.90;;;;;;5022573;28;20221;-84
2021/03/10 00:39:43;;;;;;;1.95;1.60;;;-6.10;99.90;;;;;;5022230;28;20209;-85
2021/03/10 00:42:09;;;;;;;3.10;1.65;;;-6.10;99.90;;;;;;5027972;28;20190;-85
2021/03/10 00:44:34;;;;;;;2.03;1.55;;;-6.20;99.90;;;;;;5005735;28;20664;-85
2021/03/10 00:47:00;;;;;;;2.03;1.70;;;-6.30;99.90;;;;;;5020384;28;20673;-84
2021/03/10 00:49:26;;;;;;;3.13;1.77;;;-6.30;99.90;;;;;;5006611;28;20229;-84
2021/03/10 00:51:52;;;;;;;8.13;1.90;;;-6.30;99.90;;;;;;5022765;28;20198;-85
2021/03/10 00:54:17;;;;;;;3.35;1.60;;;-6.30;99.90;;;;;;5020997;28;20627;-85
2021/03/10 00:56:43;;;;;;;3.53;1.70;;;-6.40;99.90;;;;;;5023648;28;20212;-84
2021/03/10 00:59:09;;;;;;;2.57;1.67;;;-6.40;99.90;;;;;;5026416;28;20198;-85
2021/03/10 01:01:34;;;;;;;1.73;1.60;;;-6.40;99.90;;;;;;5004707;28;20194;-85
2021/03/10 01:04:00;;;;;;;1.70;1.60;;;-6.40;99.90;;;;;;5009399;28;20562;-84
2021/03/10 01:06:26;;;;;;;1.67;1.50;;;-6.50;99.90;;;;;;5011023;28;20205;-83
2021/03/10 01:08:52;;;;;;;2.13;1.80;;;-6.60;99.90;;;;;;5022362;28;20201;-83
2021/03/10 01:11:18;;;;;;;4.25;1.90;;;-6.60;99.90;;;;;;5020278;28;20554;-83
2021/03/10 01:13:45;;;;;;;2.90;1.65;;;-6.70;99.90;;;;;;5010170;28;20201;-83
2021/03/10 01:16:10;;;;;;;2.80;1.70;;;-6.80;99.90;;;;;;5008202;28;20194;-83
2021/03/10 01:18:37;;;;;;;2.27;1.63;;;-6.80;99.90;;;;;;5027901;28;20198;-83
2021/03/10 01:21:03;;;;;;;2.00;1.70;;;-6.80;99.90;;;;;;5027443;28;20560;-85
2021/03/10 01:23:29;;;;;;;2.23;1.80;;;-6.80;99.90;;;;;;5026810;28;20205;-84
2021/03/10 01:25:54;;;;;;;2.43;1.80;;;-6.80;99.90;;;;;;5028562;28;20205;-83
2021/03/10 01:28:20;;;;;;;2.97;1.70;;;-6.80;99.90;;;;;;5030799;28;20701;-84
2021/03/10 01:30:46;;;;;;;2.80;1.67;;;-6.70;99.90;;;;;;5008947;28;20202;-84
2021/03/10 01:33:12;;;;;;;2.10;1.50;;;-6.60;99.90;;;;;;5007809;28;20562;-84
2021/03/10 01:35:38;;;;;;;3.23;1.80;;;-6.60;99.90;;;;;;5027052;28;20229;-84
2021/03/10 01:38:04;;;;;;;2.80;1.90;;;-6.60;99.90;;;;;;5010183;28;20229;-84
2021/03/10 01:40:30;;;;;;;4.80;1.90;;;-6.60;99.90;;;;;;5007807;28;20243;-83
2021/03/10 01:43:01;;;;;;;2.30;1.63;;;-6.60;99.90;;;;;;5024564;28;20283;-83
2021/03/10 01:45:27;;;;;;;4.13;1.90;;;-6.60;99.90;;;;;;5018939;28;20206;-83
2021/03/10 01:47:53;;;;;;;3.90;1.97;;;-6.30;99.90;;;;;;5004806;28;20202;-83
2021/03/10 01:50:21;;;;;;;1.63;1.50;;;-6.20;99.90;;;;;;5023865;28;20221;-83
2021/03/10 01:52:47;;;;;;;1.98;1.50;;;-6.10;99.90;;;;;;5019597;28;20183;-84
2021/03/10 01:55:13;;;;;;;2.80;1.77;;;-6.10;99.90;;;;;;5023657;28;20594;-83
2021/03/10 01:57:39;;;;;;;3.93;1.70;;;-6.20;99.90;;;;;;5016928;28;20603;-83
2021/03/10 02:00:10;;;;;;;1.93;1.63;;;-6.20;99.90;;;;;;5009246;28;20249;-85
2021/03/10 02:02:36;;;;;;;2.33;1.70;;;-6.30;99.90;;;;;;5022158;28;20197;-83
2021/03/10 02:05:02;;;;;;;2.67;1.90;;;-6.40;99.90;;;;;;5029569;23;20230;-70
2021/03/10 02:07:44;;;;;;;2.93;1.70;;;-6.50;99.90;;;;;;5004972;28;20255;-73
2021/03/10 02:10:18;;;;;;;1.97;1.50;;;-6.60;99.90;;;;;;5022877;28;20241;-71
2021/03/10 02:13:00;;;;;;;1.73;1.40;;;-6.70;99.90;;;;;;5004590;28;20202;-74
2021/03/10 02:15:50;;;;;;;1.63;1.33;;;-6.80;99.90;;;;;;5017753;28;20558;-70
2021/03/10 02:18:23;;;;;;;2.60;1.67;;;-6.80;99.90;;;;;;5024073;28;20288;-70
2021/03/10 02:20:52;;;;;;;1.90;1.70;;;-6.90;99.90;;;;;;5025159;28;20205;-72
2021/03/10 02:24:02;;;;;;;2.40;1.80;;;-6.90;99.90;;;;;;5009592;28;20194;-69
2021/03/10 02:26:45;;;;;;;2.03;1.60;;;-6.90;99.90;;;;;;5006168;28;20198;-70
2021/03/10 02:29:16;;;;;;;2.53;1.83;;;-7.00;99.90;;;;;;5024755;28;20245;-70
2021/03/10 02:31:52;;;;;;;2.10;1.70;;;-7.00;99.90;;;;;;5002563;28;20226;-70
2021/03/10 02:34:20;;;;;;;2.23;1.53;;;-7.00;99.90;;;;;;5019146;28;20597;-70
2021/03/10 02:36:50;;;;;;;1.83;1.67;;;-7.10;99.90;;;;;;5022408;28;20206;-71
2021/03/10 02:39:18;;;;;;;2.00;1.80;;;-7.10;99.90;;;;;;4996030;28;20205;-71
2021/03/10 02:41:45;;;;;;;2.60;1.60;;;-7.30;99.90;;;;;;5029114;28;20198;-72
2021/03/10 02:44:13;;;;;;;2.87;1.93;;;-7.30;99.90;;;;;;5029068;28;20243;-71
2021/03/10 02:46:40;;;;;;;2.40;1.70;;;-7.40;99.90;;;;;;5029146;28;21329;-70
2021/03/10 02:49:07;;;;;;;5.20;2.40;;;-7.40;99.90;;;;;;5042554;28;20252;-71
2021/03/10 02:51:34;;;;;;;2.37;1.83;;;-7.50;99.90;;;;;;5043316;28;22226;-70
2021/03/10 02:54:02;;;;;;;3.77;2.00;;;-7.50;99.90;;;;;;5046906;28;20205;-72
2021/03/10 02:56:28;;;;;;;2.70;1.80;;;-7.40;99.90;;;;;;5044689;28;20311;-70
2021/03/10 02:58:54;;;;;;;3.00;1.87;;;-7.40;99.90;;;;;;5043652;28;20196;-73
2021/03/10 03:01:20;;;;;;;1.93;1.50;;;-7.20;99.90;;;;;;5042430;28;20197;-70
2021/03/10 03:03:46;;;;;;;4.67;1.90;;;-7.10;99.90;;;;;;5020946;28;20700;-70
2021/03/10 03:06:11;;;;;;;5.20;2.20;;;-7.00;99.90;;;;;;5010333;28;20206;-70
2021/03/10 03:08:37;;;;;;;3.30;2.27;;;-7.00;99.90;;;;;;5033414;28;20193;-70
2021/03/10 03:11:05;;;;;;;2.00;1.73;;;-6.90;99.90;;;;;;5032038;28;20212;-70
2021/03/10 03:13:33;;;;;;;2.83;2.00;;;-6.90;99.90;;;;;;5030750;28;20256;-70
2021/03/10 03:16:00;;;;;;;2.40;1.90;;;-6.80;99.90;;;;;;5028344;28;20214;-71
2021/03/10 03:18:29;;;;;;;3.20;1.80;;;-6.70;99.90;;;;;;5029084;28;20698;-69
2021/03/10 03:20:59;;;;;;;3.27;1.90;;;-6.60;99.90;;;;;;5028747;28;20618;-71
2021/03/10 03:23:25;;;;;;;3.33;2.00;;;-6.60;99.90;;;;;;5019065;28;20202;-70
2021/03/10 03:25:51;;;;;;;3.30;2.00;;;-6.60;99.90;;;;;;5029505;28;20269;-69
2021/03/10 03:28:24;;;;;;;2.47;1.83;;;-6.60;99.90;;;;;;5019914;28;20213;-69
2021/03/10 03:30:52;;;;;;;3.70;1.93;;;-6.70;99.90;;;;;;5032754;28;20244;-70
2021/03/10 03:33:23;;;;;;;2.23;1.93;;;-6.70;99.90;;;;;;5034694;28;20190;-70
2021/03/10 03:35:54;;;;;;;3.23;1.93;;;-6.70;99.90;;;;;;5036199;28;20701;-70
2021/03/10 03:38:24;;;;;;;2.13;1.93;;;-6.70;99.90;;;;;;5027043;28;20252;-72
2021/03/10 03:40:51;;;;;;;3.03;2.00;;;-6.70;99.90;;;;;;5029050;28;20986;-71
2021/03/10 03:43:18;;;;;;;4.90;2.00;;;-6.80;99.90;;;;;;5027881;28;20198;-72
2021/03/10 03:45:45;;;;;;;4.70;2.30;;;-6.90;99.90;;;;;;5028385;28;20205;-74
2021/03/10 03:48:11;;;;;;;3.27;2.00;;;-6.90;99.90;;;;;;5030223;28;20206;-71
2021/03/10 03:50:39;;;;;;;4.33;2.50;;;-6.90;99.90;;;;;;5027573;28;20252;-70
2021/03/10 03:53:05;;;;;;;3.03;2.10;;;-7.00;99.90;;;;;;5028976;28;20202;-70
2021/03/10 03:55:30;;;;;;;5.33;2.50;;;-7.00;99.90;;;;;;5019521;28;20248;-70
2021/03/10 03:57:56;;;;;;;2.40;2.10;;;-7.00;99.90;;;;;;5025975;28;20202;-70
2021/03/10 04:00:27;;;;;;;4.27;2.50;;;-6.90;99.90;;;;;;5024618;28;20741;-70
2021/03/10 04:02:53;;;;;;;3.93;2.33;;;-7.00;99.90;;;;;;5023455;28;20202;-71
2021/03/10 04:05:20;;;;;;;5.07;2.70;;;-7.00;99.90;;;;;;5007243;28;20583;-70
2021/03/10 04:07:57;;;;;;;6.97;2.70;;;-7.00;99.90;;;;;;5010804;28;20208;-69
2021/03/10 04:10:26;;;;;;;4.57;2.67;;;-7.10;99.90;;;;;;5008284;28;20556;-71
2021/03/10 04:12:52;;;;;;;3.63;2.43;;;-7.10;99.90;;;;;;5007916;28;20217;-71
2021/03/10 04:15:19;;;;;;;4.93;2.17;;;-7.20;99.90;;;;;;5012287;28;20199;-70
2021/03/10 04:17:45;;;;;;;4.65;2.40;;;-7.10;99.90;;;;;;4993522;28;20198;-70
2021/03/10 04:20:16;;;;;;;4.00;2.30;;;-7.10;99.90;;;;;;5012263;28;20211;-70
2021/03/10 04:22:43;;;;;;;2.50;2.10;;;-7.20;99.90;;;;;;5006589;28;20201;-70
2021/03/10 04:25:10;;;;;;;9.87;2.67;;;-7.20;99.90;;;;;;5009825;28;20195;-71
2021/03/10 04:27:35;;;;;;;5.50;2.47;;;-7.20;99.90;;;;;;5008712;28;20702;-72
2021/03/10 04:30:03;;;;;;;3.35;2.08;;;-7.10;99.90;;;;;;5006628;28;20214;-71
2021/03/10 04:32:29;;;;;;;2.47;1.90;;;-7.20;99.90;;;;;;5010372;28;20221;-71
2021/03/10 04:34:54;;;;;;;3.80;1.90;;;-7.20;99.90;;;;;;5008519;28;20894;-70
2021/03/10 04:37:20;;;;;;;3.03;2.00;;;-7.20;99.90;;;;;;5008029;28;20195;-71
2021/03/10 04:39:46;;;;;;;11.50;2.70;;;-7.20;99.90;;;;;;5009446;28;20206;-70
2021/03/10 04:42:12;;;;;;;5.67;2.33;;;-7.20;99.90;;;;;;5010305;28;20198;-70
2021/03/10 04:44:37;;;;;;;4.57;2.50;;;-7.20;99.90;;;;;;5012164;28;20195;-70
2021/03/10 04:47:04;;;;;;;3.80;2.47;;;-7.30;99.90;;;;;;5010142;28;20263;-71
2021/03/10 04:49:30;;;;;;;4.70;2.17;;;-7.30;99.90;;;;;;5012747;28;20684;-69
2021/03/10 04:51:55;;;;;;;3.43;2.40;;;-7.30;99.90;;;;;;5009306;28;20203;-74
2021/03/10 04:54:22;;;;;;;5.97;2.30;;;-7.30;99.90;;;;;;4998983;28;20202;-70
2021/03/10 04:56:48;;;;;;;6.60;2.00;;;-7.40;99.90;;;;;;5010976;28;20249;-70
2021/03/10 04:59:13;;;;;;;5.33;2.40;;;-7.40;99.90;;;;;;5008457;28;20202;-71
2021/03/10 05:01:39;;;;;;;6.03;2.63;;;-7.40;99.90;;;;;;5001098;28;20335;-71
2021/03/10 05:04:05;;;;;;;5.10;2.27;;;-7.50;99.90;;;;;;4993159;28;20240;-72
2021/03/10 05:06:30;;;;;;;3.50;2.40;;;-7.50;99.90;;;;;;5023389;28;20209;-70
2021/03/10 05:08:56;;;;;;;4.07;2.40;;;-7.50;99.90;;;;;;5026066;28;20805;-72
2021/03/10 05:11:22;;;;;;;4.50;2.47;;;-7.50;99.90;;;;;;5019814;28;20289;-71
2021/03/10 05:13:48;;;;;;;5.90;2.57;;;-7.50;99.90;;;;;;5021942;28;20541;-71
2021/03/10 05:16:15;;;;;;;5.07;2.20;;;-7.50;99.90;;;;;;5024431;28;20352;-72
2021/03/10 05:18:41;;;;;;;3.60;2.47;;;-7.40;99.90;;;;;;5019679;28;20198;-70
2021/03/10 05:21:07;;;;;;;4.87;2.23;;;-7.40;99.90;;;;;;5004463;28;20317;-70
2021/03/10 05:23:33;;;;;;;3.60;2.17;;;-7.50;99.90;;;;;;5024962;28;20202;-71
2021/03/10 05:25:59;;;;;;;2.73;2.23;;;-7.50;99.90;;;;;;5022016;28;20198;-70
2021/03/10 05:28:24;;;;;;;5.27;2.40;;;-7.50;99.90;;;;;;5025495;28;20734;-72
2021/03/10 05:30:50;;;;;;;6.03;2.53;;;-7.50;99.90;;;;;;5019225;28;20218;-71
2021/03/10 05:33:16;;;;;;;4.10;2.53;;;-7.50;99.90;;;;;;5021077;28;20252;-70
2021/03/10 05:35:42;;;;;;;3.03;2.50;;;-7.50;99.90;;;;;;5005488;28;20680;-71
2021/03/10 05:38:07;;;;;;;14.17;2.83;;;-7.50;99.90;;;;;;5020150;28;20578;-70
2021/03/10 05:40:34;;;;;;;7.27;2.80;;;-7.50;99.90;;;;;;4994341;28;20236;-71
2021/03/10 05:43:00;;;;;;;3.73;2.37;;;-7.50;99.90;;;;;;5023144;28;20198;-71
2021/03/10 05:45:26;;;;;;;5.67;2.77;;;-7.50;99.90;;;;;;5022804;28;20360;-72
2021/03/10 05:47:52;;;;;;;5.40;2.80;;;-7.50;99.90;;;;;;5021040;28;20691;-71
2021/03/10 05:50:18;;;;;;;8.20;2.50;;;-7.50;99.90;;;;;;5023336;28;20221;-71
2021/03/10 05:52:47;;;;;;;4.97;2.53;;;-7.50;99.90;;;;;;5024870;28;20549;-73
2021/03/10 05:55:15;;;;;;;8.17;2.40;;;-7.50;99.90;;;;;;5024002;28;20637;-71
2021/03/10 05:57:42;;;;;;;5.27;2.40;;;-7.50;99.90;;;;;;5017646;28;20187;-70
2021/03/10 06:00:13;;;;;;;6.13;2.80;;;-7.40;99.90;;;;;;5007262;28;20218;-69
2021/03/10 06:02:39;;;;;;;6.17;2.37;;;-7.30;99.90;;;;;;5023672;28;20230;-70
2021/03/10 06:05:16;;;;;;;4.63;2.70;;;-7.20;99.90;;;;;;5022360;28;20260;-70
2021/03/10 06:07:42;;;;;;;5.67;2.73;;;-7.20;99.90;;;;;;5027005;28;20209;-70
2021/03/10 06:10:08;;;;;;;4.27;2.70;;;-7.00;99.90;;;;;;5031374;28;20575;-70
2021/03/10 06:12:44;;;;;;;9.83;3.20;;;-7.00;99.90;;;;;;5031663;28;20696;-71
2021/03/10 06:15:12;;;;;;;6.30;2.90;;;-6.90;99.90;;;;;;5030893;28;20663;-70
2021/03/10 06:17:46;;;;;;;43.87;14.70;;;-6.70;99.90;;;;;;5032020;28;20600;-70
2021/03/10 06:20:41;;;;;;;21.23;7.90;;;-6.60;99.90;;;;;;5031589;28;20208;-69
2021/03/10 06:23:14;;;;;;;50.33;17.87;;;-6.50;99.90;;;;;;5014696;28;20320;-70
2021/03/10 06:25:40;;;;;;;126.17;37.67;;;-6.40;99.90;;;;;;5030725;28;20678;-73
2021/03/10 06:28:05;;;;;;;55.40;20.20;;;-6.30;99.90;;;;;;5016562;28;20205;-72
2021/03/10 06:30:34;;;;;;;25.33;11.53;;;-6.20;99.90;;;;;;5031631;28;20210;-72
2021/03/10 06:33:00;;;;;;;46.13;16.83;;;-6.20;99.90;;;;;;5027943;28;20254;-74
2021/03/10 06:35:27;;;;;;;17.90;8.23;;;-6.10;99.90;;;;;;5030296;28;20696;-71
2021/03/10 06:38:04;;;;;;;12.60;5.43;;;-6.10;99.90;;;;;;5021475;28;20195;-70
2021/03/10 06:40:30;;;;;;;10.37;4.30;;;-6.00;99.90;;;;;;5027385;28;20277;-71
2021/03/10 06:42:56;;;;;;;7.73;3.83;;;-5.90;99.90;;;;;;5034382;28;20211;-72
2021/03/10 06:45:32;;;;;;;23.13;9.83;;;-5.90;99.90;;;;;;5030441;28;20255;-70
2021/03/10 06:47:59;;;;;;;33.80;16.87;;;-5.90;99.90;;;;;;5027437;28;20202;-71
2021/03/10 06:50:37;;;;;;;11.82;6.18;;;-5.90;99.90;;;;;;5025148;28;20221;-71
2021/03/10 06:53:03;;;;;;;7.13;3.97;;;-5.70;99.90;;;;;;5018626;28;20903;-71
2021/03/10 06:55:43;;;;;;;13.35;6.80;;;-5.70;99.90;;;;;;5008496;28;20636;-72
2021/03/10 06:58:09;;;;;;;13.23;6.20;;;-5.60;99.90;;;;;;5022366;28;20206;-71
2021/03/10 07:00:37;;;;;;;12.35;6.88;;;-5.60;99.90;;;;;;5017555;28;20207;-71
2021/03/10 07:03:04;;;;;;;8.80;5.05;;;-5.50;99.90;;;;;;5025181;28;20203;-70
2021/03/10 07:05:30;;;;;;;9.47;5.30;;;-5.40;99.90;;;;;;5020363;28;20254;-69
2021/03/10 07:07:57;;;;;;;14.02;6.97;;;-5.40;99.90;;;;;;5022022;28;20198;-69
2021/03/10 07:10:26;;;;;;;16.00;8.50;;;-5.40;99.90;;;;;;5008553;28;20218;-71
2021/03/10 07:12:56;;;;;;;14.07;5.80;;;-5.30;99.90;;;;;;5020491;28;20664;-70
2021/03/10 07:15:22;;;;;;;16.73;7.17;;;-5.20;99.90;;;;;;5019768;28;20293;-70
2021/03/10 07:17:49;;;;;;;10.30;5.38;;;-5.20;99.90;;;;;;5020402;28;20218;-69
2021/03/10 07:20:16;;;;;;;7.00;4.40;;;-5.10;99.90;;;;;;5023239;28;20194;-74
2021/03/10 07:22:50;;;;;;;10.13;5.00;;;-5.00;99.90;;;;;;5026247;28;20194;-72
2021/03/10 07:25:24;;;;;;;14.40;6.38;;;-4.90;99.90;;;;;;5017779;28;20208;-70
2021/03/10 07:27:58;;;;;;;11.00;4.10;;;-4.80;99.90;;;;;;5018082;28;20211;-70
2021/03/10 07:30:37;;;;;;;9.25;4.05;;;-4.80;99.90;;;;;;5020906;28;20216;-73
2021/03/10 07:33:13;;;;;;;6.70;3.80;;;-4.70;99.90;;;;;;5018131;28;20218;-71
2021/03/10 07:35:53;;;;;;;13.45;3.50;;;-4.60;99.90;;;;;;5023248;28;20233;-71
2021/03/10 07:38:23;;;;;;;5.55;3.28;;;-4.60;99.90;;;;;;5004431;28;20220;-72
2021/03/10 07:41:04;;;;;;;33.63;12.93;;;-4.50;99.90;;;;;;5008700;28;20205;-71
2021/03/10 07:43:43;;;;;;;24.42;10.38;;;-4.30;99.90;;;;;;5007366;28;20242;-70
2021/03/10 07:46:34;;;;;;;21.00;8.23;;;-4.20;99.90;;;;;;5015726;28;20583;-73
2021/03/10 07:49:01;;;;;;;7.43;3.40;;;-4.10;99.90;;;;;;5024049;28;20232;-71
2021/03/10 07:51:34;;;;;;;8.30;3.70;;;-4.20;99.90;;;;;;5007974;28;20687;-71
2021/03/10 07:54:01;;;;;;;8.27;4.53;;;-4.10;99.90;;;;;;5016800;28;20191;-71
2021/03/10 07:56:29;;;;;;;7.00;3.47;;;-3.90;99.90;;;;;;5025775;28;20202;-70
2021/03/10 07:59:10;;;;;;;8.40;3.42;;;-3.70;99.90;;;;;;5023554;28;20193;-72
2021/03/10 08:01:36;;;;;;;5.88;3.47;;;-3.70;99.90;;;;;;5018658;28;20589;-70
2021/03/10 08:04:18;;;;;;;4.63;3.08;;;-3.70;99.90;;;;;;5017367;28;20297;-71
2021/03/10 08:06:49;;;;;;;6.85;2.78;;;-3.70;99.90;;;;;;5015792;28;20637;-73
2021/03/10 08:09:20;;;;;;;9.45;3.03;;;-3.80;99.90;;;;;;5019777;28;20276;-71
2021/03/10 08:11:48;;;;;;;7.80;2.97;;;-3.70;99.90;;;;;;5011046;28;20212;-70
2021/03/10 08:14:17;;;;;;;7.00;2.88;;;-3.60;99.90;;;;;;5021719;28;20277;-73
2021/03/10 08:16:45;;;;;;;14.75;2.85;;;-3.70;99.90;;;;;;5024898;28;20270;-71
2021/03/10 08:19:11;;;;;;;6.00;2.75;;;-3.60;99.90;;;;;;5019414;28;20273;-72
2021/03/10 08:21:56;;;;;;;5.20;2.95;;;-3.50;99.90;;;;;;5013281;28;20191;-71
2021/03/10 08:24:23;;;;;;;8.52;3.08;;;-3.40;99.90;;;;;;5017993;28;20198;-71
2021/03/10 08:26:55;;;;;;;5.82;3.08;;;-3.30;99.90;;;;;;5021593;28;20198;-70
2021/03/10 08:29:21;;;;;;;14.30;2.75;;;-3.30;99.90;;;;;;5018657;28;20748;-71
2021/03/10 08:31:52;;;;;;;5.63;2.70;;;-3.10;99.90;;;;;;5022578;28;20194;-72
2021/03/10 08:34:39;;;;;;;8.90;3.50;;;-2.80;99.90;;;;;;5008217;28;20222;-70
2021/03/10 08:37:11;;;;;;;5.18;2.88;;;-2.60;99.90;;;;;;5024168;28;20240;-73
2021/03/10 08:39:44;;;;;;;6.82;2.78;;;-2.50;99.90;;;;;;5019820;28;20313;-72
2021/03/10 08:42:11;;;;;;;5.45;2.88;;;-2.50;99.90;;;;;;5020204;28;20200;-71
2021/03/10 08:44:45;;;;;;;5.72;2.90;;;-2.40;99.90;;;;;;5009661;28;20200;-71
2021/03/10 08:47:13;;;;;;;4.88;3.13;;;-2.30;99.90;;;;;;5019630;28;20194;-71
2021/03/10 08:49:39;;;;;;;7.72;2.92;;;-2.30;99.90;;;;;;5019010;28;20540;-71
2021/03/10 08:52:13;;;;;;;8.60;4.38;;;-2.40;99.90;;;;;;5016007;28;20198;-72
2021/03/10 08:54:56;;;;;;;6.10;3.17;;;-2.60;99.90;;;;;;5006572;28;20205;-70
2021/03/10 08:57:29;;;;;;;7.47;3.58;;;-2.80;99.90;;;;;;5023359;28;20840;-71
2021/03/10 08:59:56;;;;;;;6.07;3.10;;;-2.80;99.90;;;;;;5018468;28;20412;-71
2021/03/10 09:02:32;;;;;;;6.68;2.85;;;-2.70;99.90;;;;;;5017713;28;20224;-72
2021/03/10 09:04:59;;;;;;;7.60;3.80;;;-2.60;99.90;;;;;;5021024;28;20237;-70
2021/03/10 09:07:26;;;;;;;5.60;3.20;;;-2.40;99.90;;;;;;5008320;28;20194;-71
2021/03/10 09:09:57;;;;;;;7.05;3.45;;;-2.20;99.90;;;;;;5008903;28;20215;-71
2021/03/10 09:12:23;;;;;;;9.07;3.88;;;-1.70;99.90;;;;;;5023788;28;20194;-71
2021/03/10 09:14:49;;;;;;;8.48;3.50;;;-1.00;99.90;;;;;;5026258;28;20624;-72
2021/03/10 09:17:15;;;;;;;6.00;3.00;;;-0.60;99.90;;;;;;5020358;28;20202;-72
2021/03/10 09:19:47;;;;;;;5.47;3.00;;;-0.40;99.90;;;;;;5021032;28;20202;-70
2021/03/10 09:22:21;;;;;;;5.93;2.80;;;-0.40;99.90;;;;;;5021855;28;20198;-71
2021/03/10 09:24:51;;;;;;;4.97;2.72;;;-0.50;99.90;;;;;;5022533;28;20198;-71
2021/03/10 09:27:24;;;;;;;4.90;2.80;;;-0.90;99.90;;;;;;5021592;28;20197;-72
2021/03/10 09:29:53;;;;;;;3.88;2.70;;;-0.80;99.90;;;;;;5009198;28;20206;-73
2021/03/10 09:32:19;;;;;;;6.05;3.13;;;-0.40;99.90;;;;;;5024137;28;20202;-73
2021/03/10 09:34:49;;;;;;;4.18;2.70;;;0.00;99.90;;;;;;5022509;28;20221;-72
2021/03/10 09:37:16;;;;;;;7.40;3.03;;;0.20;99.90;;;;;;5024204;28;20227;-71
2021/03/10 09:39:51;;;;;;;12.02;2.58;;;0.10;99.90;;;;;;5025546;28;20541;-72
2021/03/10 09:42:18;;;;;;;4.47;2.50;;;0.00;99.90;;;;;;5024443;28;20220;-72
2021/03/10 09:44:47;;;;;;;7.65;2.60;;;-0.30;99.90;;;;;;5020082;28;20194;-74
2021/03/10 09:47:15;;;;;;;5.57;2.88;;;-0.60;99.90;;;;;;5023798;28;20206;-70
2021/03/10 09:49:48;;;;;;;4.93;2.90;;;-0.60;99.90;;;;;;5023840;28;20213;-72
2021/03/10 09:52:14;;;;;;;4.75;3.08;;;-0.60;99.90;;;;;;5013193;28;20205;-75
2021/03/10 09:54:53;;;;;;;4.93;2.97;;;-0.80;99.90;;;;;;5029079;28;20205;-71
2021/03/10 09:57:29;;;;;;;6.03;3.10;;;-0.70;99.90;;;;;;5025673;28;20679;-72
2021/03/10 09:59:57;;;;;;;10.55;3.60;;;-0.50;99.90;;;;;;5025297;28;20198;-72
2021/03/10 10:02:24;;;;;;;11.32;3.28;;;-0.40;99.90;;;;;;5025860;28;20193;-71
2021/03/10 10:05:07;;;;;;;4.93;2.83;;;-0.30;99.90;;;;;;5024699;28;20249;-73
2021/03/10 10:07:32;;;;;;;9.50;3.22;;;-0.50;99.90;;;;;;5023873;28;20206;-71
2021/03/10 10:09:58;;;;;;;11.43;2.80;;;-0.40;99.90;;;;;;5022741;28;20610;-71
2021/03/10 10:12:25;;;;;;;4.97;2.78;;;-0.50;99.90;;;;;;5028205;28;20209;-71
2021/03/10 10:14:51;;;;;;;5.40;2.17;;;-0.60;99.90;;;;;;5012193;28;20198;-71
2021/03/10 10:17:16;;;;;;;6.43;2.92;;;-0.80;99.90;;;;;;5018164;28;20190;-70
2021/03/10 10:19:43;;;;;;;5.45;2.95;;;-0.90;99.90;;;;;;5021462;28;20210;-72
2021/03/10 10:22:09;;;;;;;14.00;3.20;;;-0.80;99.90;;;;;;5017608;28;20290;-70
2021/03/10 10:24:36;;;;;;;5.13;2.72;;;-0.70;99.90;;;;;;5024264;28;20560;-71
2021/03/10 10:27:01;;;;;;;7.72;2.63;;;-0.30;99.90;;;;;;5010598;28;20199;-70
2021/03/10 10:29:27;;;;;;;5.45;2.88;;;-0.10;99.90;;;;;;5018457;28;20206;-72
2021/03/10 10:31:53;;;;;;;6.72;2.58;;;-0.10;99.90;;;;;;5028962;28;20554;-72
2021/03/10 10:34:19;;;;;;;5.13;2.83;;;-0.50;99.90;;;;;;5021266;28;20214;-72
2021/03/10 10:36:45;;;;;;;5.05;2.65;;;-0.50;99.90;;;;;;5019784;28;20202;-72
2021/03/10 10:39:11;;;;;;;6.00;2.90;;;-0.30;99.90;;;;;;5023622;28;20207;-72
2021/03/10 10:41:37;;;;;;;6.28;3.05;;;-0.40;99.90;;;;;;5007470;28;20692;-71
2021/03/10 10:44:03;;;;;;;9.25;2.75;;;-0.30;99.90;;;;;;5008100;28;20273;-71
2021/03/10 10:46:28;;;;;;;9.90;3.13;;;-0.30;99.90;;;;;;5024091;28;20190;-71
2021/03/10 10:48:54;;;;;;;5.95;3.30;;;-0.20;99.90;;;;;;5012225;28;20748;-72
2021/03/10 10:51:22;;;;;;;7.88;3.50;;;0.10;99.90;;;;;;5022893;28;20213;-71
2021/03/10 10:53:48;;;;;;;4.93;2.78;;;0.10;99.90;;;;;;5021778;28;20691;-71
2021/03/10 10:56:14;;;;;;;6.50;3.10;;;0.20;99.90;;;;;;5017027;28;20820;-73
2021/03/10 10:58:40;;;;;;;4.80;2.83;;;0.30;99.90;;;;;;5025196;28;20201;-71
2021/03/10 11:01:06;;;;;;;6.63;3.38;;;0.20;99.90;;;;;;5021895;28;20207;-73
2021/03/10 11:03:31;;;;;;;6.28;3.30;;;-0.10;99.90;;;;;;5011205;28;20209;-71
2021/03/10 11:05:57;;;;;;;8.55;3.47;;;-0.10;99.90;;;;;;5003277;28;20228;-72
2021/03/10 11:08:23;;;;;;;8.38;3.60;;;-0.30;99.90;;;;;;5028125;28;20594;-72
2021/03/10 11:10:48;;;;;;;6.38;3.28;;;-0.40;99.90;;;;;;5019514;28;20676;-71
2021/03/10 11:13:14;;;;;;;7.55;3.67;;;-0.40;99.90;;;;;;5024980;28;20289;-74
2021/03/10 11:15:40;;;;;;;7.50;3.28;;;-0.50;99.90;;;;;;5016649;28;20260;-71
2021/03/10 11:18:05;;;;;;;6.60;3.65;;;-0.60;99.90;;;;;;5018873;28;20193;-71
2021/03/10 11:20:31;;;;;;;7.20;3.38;;;-0.80;99.90;;;;;;5020283;28;20194;-71
2021/03/10 11:22:57;;;;;;;6.72;3.35;;;-0.90;99.90;;;;;;5006286;28;20190;-72
2021/03/10 11:25:22;;;;;;;6.93;3.70;;;-1.00;99.90;;;;;;5019586;28;20202;-71
2021/03/10 11:27:48;;;;;;;9.82;3.58;;;-1.00;99.90;;;;;;5021595;28;20198;-70
2021/03/10 11:30:15;;;;;;;8.90;3.83;;;-0.90;99.90;;;;;;5024648;28;20210;-73
2021/03/10 11:32:40;;;;;;;5.75;3.47;;;-0.90;99.90;;;;;;5024762;28;20920;-71
2021/03/10 11:35:08;;;;;;;6.55;3.47;;;-0.80;99.90;;;;;;5022611;28;20201;-71
2021/03/10 11:37:34;;;;;;;7.70;3.75;;;-0.80;99.90;;;;;;5017525;28;20225;-72
2021/03/10 11:40:00;;;;;;;6.72;3.40;;;-0.70;99.90;;;;;;5024675;28;20564;-71
2021/03/10 11:42:26;;;;;;;9.07;3.75;;;-0.80;99.90;;;;;;5018891;28;20213;-71
2021/03/10 11:44:52;;;;;;;7.40;3.67;;;-0.90;99.90;;;;;;5017244;28;20201;-71
2021/03/10 11:47:18;;;;;;;6.68;3.95;;;-0.80;99.90;;;;;;5007436;28;20206;-73
2021/03/10 11:49:43;;;;;;;9.93;3.47;;;-1.10;99.90;;;;;;5017518;28;20216;-71
2021/03/10 11:52:09;;;;;;;8.32;4.15;;;-1.10;99.90;;;;;;5016046;28;20225;-71
2021/03/10 11:54:35;;;;;;;6.13;3.60;;;-1.20;99.90;;;;;;5017135;28;20204;-72
2021/03/10 11:57:00;;;;;;;8.05;3.25;;;-1.20;99.90;;;;;;5028908;28;20201;-71
2021/03/10 11:59:26;;;;;;;8.52;3.90;;;-1.20;99.90;;;;;;5016759;28;20244;-71
2021/03/10 12:01:52;;;;;;;8.48;3.47;;;-1.20;99.90;;;;;;5019135;28;20187;-70
2021/03/10 12:04:18;;;;;;;6.55;3.40;;;-1.10;99.90;;;;;;5018204;28;20231;-71
2021/03/10 12:06:43;;;;;;;11.40;3.80;;;-1.00;99.90;;;;;;5022578;28;20190;-71
2021/03/10 12:09:09;;;;;;;5.43;3.25;;;-1.00;99.90;;;;;;5017890;28;20301;-71
2021/03/10 12:11:35;;;;;;;8.23;3.78;;;-1.20;99.90;;;;;;5013416;28;20210;-72
2021/03/10 12:14:01;;;;;;;9.25;2.95;;;-1.10;99.90;;;;;;5019541;28;20202;-71
2021/03/10 12:16:26;;;;;;;6.78;3.17;;;-1.20;99.90;;;;;;5017198;28;20198;-70
2021/03/10 12:18:52;;;;;;;8.80;3.40;;;-1.30;99.90;;;;;;5021089;28;20198;-73
2021/03/10 12:21:18;;;;;;;10.18;3.40;;;-1.50;99.90;;;;;;5020707;28;20205;-71
2021/03/10 12:23:43;;;;;;;7.20;3.70;;;-1.60;99.90;;;;;;5016525;28;20197;-71
2021/03/10 12:26:09;;;;;;;7.03;3.60;;;-1.70;99.90;;;;;;5023784;28;20198;-71
2021/03/10 12:28:35;;;;;;;7.72;4.00;;;-1.60;99.90;;;;;;5017528;28;20205;-72
2021/03/10 12:31:01;;;;;;;8.65;4.50;;;-1.60;99.90;;;;;;5017689;28;20676;-72
2021/03/10 12:33:27;;;;;;;8.32;3.97;;;-1.40;99.90;;;;;;5023794;28;20241;-73
2021/03/10 12:35:53;;;;;;;7.05;3.72;;;-1.50;99.90;;;;;;5011810;28;20561;-70
2021/03/10 12:38:18;;;;;;;7.80;4.05;;;-1.50;99.90;;;;;;5015467;28;20257;-71
2021/03/10 12:40:44;;;;;;;8.15;3.78;;;-1.30;99.90;;;;;;5024350;28;20933;-73
2021/03/10 12:43:10;;;;;;;8.85;3.70;;;-1.10;99.90;;;;;;5025557;28;20207;-72
2021/03/10 12:45:35;;;;;;;7.68;3.58;;;-0.90;99.90;;;;;;5025101;28;20555;-71
2021/03/10 12:48:02;;;;;;;10.80;3.60;;;-0.90;99.90;;;;;;5020946;28;20240;-71
2021/03/10 12:50:28;;;;;;;6.13;3.72;;;-0.80;99.90;;;;;;5018568;28;20203;-71